Time;durP1;ratioP1;P1;durP2;ratioP2;P2;SDS_P1;SDS_P2;PMS_P1;PMS_P2;Temp;Humidity;BMP_temperature;BMP_pressure;BME280_temperature;BME280_humidity;BME280_pressure;Samples;Min_cycle;Max_cycle;Signal;HPM_P1;HPM_P2
2021/03/03 00:01:24;;;;;;;58.65;27.02;;;;;;;;;;5096259;28;20645;-64
2021/03/03 00:03:51;;;;;;;70.30;29.90;;;;;;;;;;5098443;28;20220;-64
2021/03/03 00:06:18;;;;;;;56.60;27.80;;;;;;;;;;5093620;28;20208;-64
2021/03/03 00:08:44;;;;;;;57.67;27.13;;;;;;;;;;5093816;28;20220;-64
2021/03/03 00:11:12;;;;;;;63.60;28.98;;;;;;;;;;5093376;28;20204;-64
2021/03/03 00:13:39;;;;;;;57.10;28.17;;;;;;;;;;5093610;28;20216;-64
2021/03/03 00:16:06;;;;;;;65.47;28.98;;;;;;;;;;5093817;28;20200;-64
2021/03/03 00:18:33;;;;;;;58.88;28.58;;;;;;;;;;5093454;28;20230;-65
2021/03/03 00:21:00;;;;;;;60.72;28.58;;;;;;;;;;5093749;28;20243;-64
2021/03/03 00:23:27;;;;;;;55.35;27.15;;;;;;;;;;5096027;28;20269;-64
2021/03/03 00:25:53;;;;;;;59.17;28.30;;;;;;;;;;5098355;28;20203;-64
2021/03/03 00:28:21;;;;;;;58.72;26.20;;;;;;;;;;5098320;28;20220;-65
2021/03/03 00:30:48;;;;;;;58.78;27.67;;;;;;;;;;5098854;28;20204;-64
2021/03/03 00:33:14;;;;;;;48.17;26.90;;;;;;;;;;5097527;28;20220;-64
2021/03/03 00:35:41;;;;;;;54.55;29.05;;;;;;;;;;5097632;28;20200;-64
2021/03/03 00:38:08;;;;;;;50.38;26.10;;;;;;;;;;5097909;28;20195;-63
2021/03/03 00:40:35;;;;;;;46.47;25.73;;;;;;;;;;5097355;28;20201;-63
2021/03/03 00:43:02;;;;;;;46.90;24.92;;;;;;;;;;5097954;28;20242;-63
2021/03/03 00:45:29;;;;;;;51.78;25.55;;;;;;;;;;5098009;28;20200;-65
2021/03/03 00:47:56;;;;;;;50.50;25.30;;;;;;;;;;5097776;28;20617;-64
2021/03/03 00:50:23;;;;;;;48.58;26.38;;;;;;;;;;5097887;28;20205;-65
2021/03/03 00:52:49;;;;;;;46.45;24.20;;;;;;;;;;5098066;28;20200;-64
2021/03/03 00:55:16;;;;;;;48.55;25.33;;;;;;;;;;5097495;28;20201;-64
2021/03/03 00:57:43;;;;;;;48.95;24.92;;;;;;;;;;5097109;28;20204;-64
2021/03/03 01:00:10;;;;;;;41.38;23.90;;;;;;;;;;5097280;28;20200;-64
2021/03/03 01:02:38;;;;;;;45.40;24.67;;;;;;;;;;5097636;28;20204;-64
2021/03/03 01:05:05;;;;;;;38.10;24.83;;;;;;;;;;5106655;28;20200;-64
2021/03/03 01:07:32;;;;;;;38.55;25.15;;;;;;;;;;5116384;28;20240;-65
2021/03/03 01:09:59;;;;;;;41.47;22.70;;;;;;;;;;5117254;28;20227;-64
2021/03/03 01:12:25;;;;;;;44.28;22.30;;;;;;;;;;5116993;28;20208;-64
2021/03/03 01:14:52;;;;;;;41.55;23.73;;;;;;;;;;5114106;28;20227;-65
2021/03/03 01:17:19;;;;;;;42.80;24.83;;;;;;;;;;5108694;28;20196;-64
2021/03/03 01:19:47;;;;;;;43.38;22.65;;;;;;;;;;5103665;28;20192;-64
2021/03/03 01:22:13;;;;;;;44.00;24.05;;;;;;;;;;5098242;28;20208;-64
2021/03/03 01:24:41;;;;;;;45.15;23.45;;;;;;;;;;5098622;28;20308;-65
2021/03/03 01:27:07;;;;;;;42.20;22.58;;;;;;;;;;5099694;28;20200;-64
2021/03/03 01:29:34;;;;;;;36.60;21.23;;;;;;;;;;5098156;28;20224;-64
2021/03/03 01:32:01;;;;;;;39.88;22.00;;;;;;;;;;5097336;28;20200;-64
2021/03/03 01:34:28;;;;;;;32.97;19.20;;;;;;;;;;5096737;28;20217;-65
2021/03/03 01:36:55;;;;;;;31.15;19.00;;;;;;;;;;5098121;28;20201;-64
2021/03/03 01:39:22;;;;;;;39.13;21.92;;;;;;;;;;5100587;28;20529;-64
2021/03/03 01:41:49;;;;;;;33.40;19.70;;;;;;;;;;5098692;28;20200;-64
2021/03/03 01:44:15;;;;;;;29.23;19.83;;;;;;;;;;5099252;28;20235;-64
2021/03/03 01:46:42;;;;;;;33.65;19.67;;;;;;;;;;5099323;28;20257;-64
2021/03/03 01:49:09;;;;;;;30.98;19.60;;;;;;;;;;5099064;28;20220;-64
2021/03/03 01:51:36;;;;;;;33.88;19.58;;;;;;;;;;5099267;28;20562;-64
2021/03/03 01:54:03;;;;;;;33.88;19.58;;;;;;;;;;5098705;28;20397;-64
2021/03/03 01:56:30;;;;;;;30.15;16.83;;;;;;;;;;5098421;28;20207;-63
2021/03/03 01:58:57;;;;;;;32.40;18.23;;;;;;;;;;5100790;28;20699;-63
2021/03/03 02:01:24;;;;;;;31.50;18.35;;;;;;;;;;5096880;28;20207;-63
2021/03/03 02:03:51;;;;;;;27.27;17.45;;;;;;;;;;5096236;28;20228;-64
2021/03/03 02:06:20;;;;;;;27.30;16.08;;;;;;;;;;5095875;28;20273;-64
2021/03/03 02:08:49;;;;;;;25.30;16.25;;;;;;;;;;5096370;28;20273;-64
2021/03/03 02:11:20;;;;;;;29.58;18.45;;;;;;;;;;5096587;28;20227;-64
2021/03/03 02:13:48;;;;;;;22.88;16.67;;;;;;;;;;5097454;28;20234;-63
2021/03/03 02:16:15;;;;;;;23.42;16.48;;;;;;;;;;5096672;28;20196;-64
2021/03/03 02:18:42;;;;;;;30.48;16.10;;;;;;;;;;5098705;28;20199;-65
2021/03/03 02:21:11;;;;;;;27.70;15.93;;;;;;;;;;5099146;28;20204;-64
2021/03/03 02:23:43;;;;;;;21.48;15.25;;;;;;;;;;5097640;28;20235;-63
2021/03/03 02:26:11;;;;;;;21.75;15.05;;;;;;;;;;5098238;28;20184;-64
2021/03/03 02:28:38;;;;;;;21.65;13.85;;;;;;;;;;5098429;28;20216;-64
2021/03/03 02:31:05;;;;;;;20.60;14.32;;;;;;;;;;5117005;28;20226;-65
2021/03/03 02:33:32;;;;;;;20.90;13.80;;;;;;;;;;5103487;28;20700;-63
2021/03/03 02:35:59;;;;;;;23.65;16.55;;;;;;;;;;5096918;28;20196;-64
2021/03/03 02:38:26;;;;;;;19.35;12.65;;;;;;;;;;5104691;28;20192;-64
2021/03/03 02:40:53;;;;;;;24.05;14.90;;;;;;;;;;5102506;28;20204;-65
2021/03/03 02:43:21;;;;;;;23.23;13.75;;;;;;;;;;5098257;28;20293;-63
2021/03/03 02:45:49;;;;;;;23.05;14.13;;;;;;;;;;5097467;28;20204;-64
2021/03/03 02:48:16;;;;;;;22.35;14.52;;;;;;;;;;5094435;28;20760;-65
2021/03/03 02:50:43;;;;;;;22.33;14.57;;;;;;;;;;5100814;28;20204;-63
2021/03/03 02:53:10;;;;;;;21.27;14.13;;;;;;;;;;5107285;28;20220;-64
2021/03/03 02:55:37;;;;;;;22.60;14.00;;;;;;;;;;5105410;28;20205;-66
2021/03/03 02:58:05;;;;;;;19.45;13.27;;;;;;;;;;5103153;28;20204;-64
2021/03/03 03:00:34;;;;;;;21.00;13.65;;;;;;;;;;5096693;28;20200;-64
2021/03/03 03:03:03;;;;;;;22.30;14.63;;;;;;;;;;5094404;28;20593;-63
2021/03/03 03:05:31;;;;;;;20.90;13.32;;;;;;;;;;5094276;28;20296;-65
2021/03/03 03:08:00;;;;;;;19.35;14.18;;;;;;;;;;5094286;28;20201;-63
2021/03/03 03:10:27;;;;;;;22.17;13.52;;;;;;;;;;5094224;28;20230;-63
2021/03/03 03:12:55;;;;;;;16.92;12.10;;;;;;;;;;5094313;28;20197;-64
2021/03/03 03:15:23;;;;;;;16.88;12.07;;;;;;;;;;5094440;28;20200;-64
2021/03/03 03:17:55;;;;;;;17.20;11.25;;;;;;;;;;5094646;28;20196;-65
2021/03/03 03:20:22;;;;;;;18.50;13.63;;;;;;;;;;5095556;28;20188;-64
2021/03/03 03:22:49;;;;;;;18.23;13.25;;;;;;;;;;5094424;28;20664;-63
2021/03/03 03:25:16;;;;;;;17.88;12.82;;;;;;;;;;5094615;28;20201;-64
2021/03/03 03:27:44;;;;;;;16.67;11.30;;;;;;;;;;5094676;28;20204;-64
2021/03/03 03:30:12;;;;;;;17.40;11.95;;;;;;;;;;5094435;28;20250;-65
2021/03/03 03:32:39;;;;;;;14.02;11.20;;;;;;;;;;5094257;28;20196;-64
2021/03/03 03:35:07;;;;;;;17.80;12.63;;;;;;;;;;5094213;28;20204;-64
2021/03/03 03:37:34;;;;;;;13.93;10.95;;;;;;;;;;5094117;28;20204;-64
2021/03/03 03:40:01;;;;;;;16.10;11.98;;;;;;;;;;5094189;28;20207;-64
2021/03/03 03:42:29;;;;;;;18.73;12.18;;;;;;;;;;5094418;28;20211;-64
2021/03/03 03:44:56;;;;;;;17.38;11.68;;;;;;;;;;5097241;28;20273;-64
2021/03/03 03:47:23;;;;;;;17.90;11.90;;;;;;;;;;5096869;28;20584;-64
2021/03/03 03:49:50;;;;;;;17.55;11.90;;;;;;;;;;5097752;28;20265;-63
2021/03/03 03:52:18;;;;;;;17.80;11.60;;;;;;;;;;5095898;28;20203;-63
2021/03/03 03:54:51;;;;;;;17.45;12.57;;;;;;;;;;5095043;28;20269;-63
2021/03/03 03:57:18;;;;;;;17.33;11.63;;;;;;;;;;5094143;28;20204;-63
2021/03/03 03:59:45;;;;;;;17.02;12.13;;;;;;;;;;5094523;28;20204;-64
2021/03/03 04:02:12;;;;;;;15.95;11.23;;;;;;;;;;5095187;28;20213;-64
2021/03/03 04:07:48;;;;;;;15.30;11.15;;;;;;;;;;5115184;27;20875;-63
2021/03/03 04:10:16;;;;;;;19.00;12.02;;;;;;;;;;5114641;28;20207;-63
2021/03/03 04:12:42;;;;;;;17.10;11.15;;;;;;;;;;5114993;28;20199;-64
2021/03/03 04:15:10;;;;;;;14.25;11.20;;;;;;;;;;5124294;28;20199;-65
2021/03/03 04:17:37;;;;;;;17.35;11.50;;;;;;;;;;5117753;28;20207;-64
2021/03/03 04:20:05;;;;;;;18.55;11.23;;;;;;;;;;5113744;28;20253;-64
2021/03/03 04:22:31;;;;;;;16.73;11.07;;;;;;;;;;5112384;28;20200;-64
2021/03/03 04:24:59;;;;;;;18.13;11.75;;;;;;;;;;5111518;28;20242;-64
2021/03/03 04:27:26;;;;;;;16.67;12.38;;;;;;;;;;5115511;28;20216;-65
2021/03/03 04:29:52;;;;;;;16.52;11.10;;;;;;;;;;5114676;28;20204;-64
2021/03/03 04:32:19;;;;;;;14.73;11.27;;;;;;;;;;5111886;28;20204;-63
2021/03/03 04:34:46;;;;;;;16.58;10.77;;;;;;;;;;5111462;28;20224;-64
2021/03/03 04:37:13;;;;;;;17.85;12.02;;;;;;;;;;5111397;28;20203;-64
2021/03/03 04:39:39;;;;;;;15.88;11.07;;;;;;;;;;5112757;28;20335;-64
2021/03/03 04:42:07;;;;;;;17.42;10.80;;;;;;;;;;5112037;28;20195;-64
2021/03/03 04:44:34;;;;;;;15.40;10.63;;;;;;;;;;5113102;28;20220;-64
2021/03/03 04:47:01;;;;;;;15.80;12.20;;;;;;;;;;5113667;28;20227;-64
2021/03/03 04:49:27;;;;;;;15.30;11.27;;;;;;;;;;5112385;28;20200;-64
2021/03/03 04:51:54;;;;;;;18.17;10.77;;;;;;;;;;5112346;28;20211;-64
2021/03/03 04:54:21;;;;;;;14.82;11.50;;;;;;;;;;5111422;28;20598;-64
2021/03/03 04:56:48;;;;;;;16.83;11.00;;;;;;;;;;5112678;28;20200;-64
2021/03/03 04:59:15;;;;;;;17.42;12.60;;;;;;;;;;5112219;28;20203;-64
2021/03/03 05:01:42;;;;;;;13.57;10.52;;;;;;;;;;5111808;28;20203;-63
2021/03/03 05:04:09;;;;;;;19.15;12.60;;;;;;;;;;5112001;28;20588;-64
2021/03/03 05:06:36;;;;;;;14.90;11.48;;;;;;;;;;5111188;28;20760;-64
2021/03/03 05:09:02;;;;;;;17.85;11.38;;;;;;;;;;5111576;28;20249;-64
2021/03/03 05:11:29;;;;;;;17.35;11.18;;;;;;;;;;5110705;28;20328;-66
2021/03/03 05:13:56;;;;;;;15.13;10.50;;;;;;;;;;5110410;28;20231;-64
2021/03/03 05:16:24;;;;;;;17.02;11.60;;;;;;;;;;5111114;28;20200;-64
2021/03/03 05:18:50;;;;;;;15.55;11.00;;;;;;;;;;5100769;28;20613;-63
2021/03/03 05:21:17;;;;;;;19.63;11.88;;;;;;;;;;5113911;28;20204;-63
2021/03/03 05:23:44;;;;;;;16.17;12.15;;;;;;;;;;5108439;28;20627;-64
2021/03/03 05:26:11;;;;;;;18.00;10.27;;;;;;;;;;5098175;28;20212;-64
2021/03/03 05:28:37;;;;;;;15.52;11.60;;;;;;;;;;5099269;28;20207;-62
2021/03/03 05:31:04;;;;;;;16.35;11.88;;;;;;;;;;5111102;28;20200;-64
2021/03/03 05:33:33;;;;;;;13.63;11.32;;;;;;;;;;5107022;28;20695;-64
2021/03/03 05:36:01;;;;;;;19.63;11.98;;;;;;;;;;5104654;28;20696;-66
2021/03/03 05:38:28;;;;;;;17.73;12.20;;;;;;;;;;5101983;28;20208;-64
2021/03/03 05:40:56;;;;;;;16.02;10.30;;;;;;;;;;5099207;28;20209;-64
2021/03/03 05:43:23;;;;;;;17.27;12.98;;;;;;;;;;5097871;28;20225;-65
2021/03/03 05:45:50;;;;;;;15.32;11.60;;;;;;;;;;5098114;28;20247;-64
2021/03/03 05:48:20;;;;;;;15.60;10.65;;;;;;;;;;5096324;28;20664;-64
2021/03/03 05:50:50;;;;;;;18.55;11.95;;;;;;;;;;5097069;28;20200;-64
2021/03/03 05:53:17;;;;;;;17.33;12.07;;;;;;;;;;5096776;28;20290;-65
2021/03/03 05:55:44;;;;;;;18.00;12.05;;;;;;;;;;5095747;28;20687;-64
2021/03/03 05:58:10;;;;;;;20.60;13.15;;;;;;;;;;5096065;28;20224;-63
2021/03/03 06:00:37;;;;;;;16.15;11.10;;;;;;;;;;5096074;28;20226;-64
2021/03/03 06:03:04;;;;;;;15.88;11.43;;;;;;;;;;5096049;28;20269;-64
2021/03/03 06:05:32;;;;;;;20.70;12.07;;;;;;;;;;5096844;28;20196;-64
2021/03/03 06:08:00;;;;;;;20.35;13.38;;;;;;;;;;5097953;28;20185;-65
2021/03/03 06:10:27;;;;;;;23.42;14.05;;;;;;;;;;5096524;28;20669;-65
2021/03/03 06:12:53;;;;;;;19.02;12.27;;;;;;;;;;5096729;28;20203;-65
2021/03/03 06:15:20;;;;;;;18.35;11.68;;;;;;;;;;5095719;28;20318;-64
2021/03/03 06:17:47;;;;;;;17.10;11.82;;;;;;;;;;5095828;28;20546;-63
2021/03/03 06:20:14;;;;;;;15.95;11.82;;;;;;;;;;5095752;28;20551;-65
2021/03/03 06:22:41;;;;;;;17.23;12.07;;;;;;;;;;5095726;28;20204;-64
2021/03/03 06:25:19;;;;;;;18.27;12.73;;;;;;;;;;5095956;28;20200;-63
2021/03/03 06:27:46;;;;;;;17.65;12.27;;;;;;;;;;5095770;28;20204;-64
2021/03/03 06:30:14;;;;;;;20.63;14.43;;;;;;;;;;5093595;28;20451;-64
2021/03/03 06:32:54;;;;;;;24.23;14.70;;;;;;;;;;5096504;28;20204;-62
2021/03/03 06:35:21;;;;;;;16.75;12.93;;;;;;;;;;5096107;28;20200;-63
2021/03/03 06:37:53;;;;;;;18.13;13.70;;;;;;;;;;5095989;28;20196;-63
2021/03/03 06:40:21;;;;;;;23.10;13.52;;;;;;;;;;5096918;28;20208;-63
2021/03/03 06:42:47;;;;;;;23.35;15.05;;;;;;;;;;5095750;28;20668;-64
2021/03/03 06:45:25;;;;;;;18.85;13.00;;;;;;;;;;5096124;28;20737;-64
2021/03/03 06:47:52;;;;;;;19.95;13.50;;;;;;;;;;5095755;28;20610;-62
2021/03/03 06:50:19;;;;;;;19.38;12.93;;;;;;;;;;5095702;28;20254;-63
2021/03/03 06:52:46;;;;;;;15.90;11.77;;;;;;;;;;5095828;28;20668;-62
2021/03/03 06:55:15;;;;;;;19.38;12.30;;;;;;;;;;5096325;28;20207;-64
2021/03/03 06:57:42;;;;;;;17.38;12.50;;;;;;;;;;5101391;28;20192;-64
2021/03/03 07:00:10;;;;;;;17.75;13.55;;;;;;;;;;5099110;28;20204;-63
2021/03/03 07:02:38;;;;;;;19.63;12.30;;;;;;;;;;5095303;28;20559;-61
2021/03/03 07:05:05;;;;;;;18.23;13.90;;;;;;;;;;5095273;28;20656;-64
2021/03/03 07:07:32;;;;;;;20.75;13.75;;;;;;;;;;5095189;28;20224;-62
2021/03/03 07:09:59;;;;;;;19.63;14.20;;;;;;;;;;5095745;28;20571;-63
2021/03/03 07:12:27;;;;;;;20.85;13.32;;;;;;;;;;5097462;28;20203;-62
2021/03/03 07:14:59;;;;;;;19.40;14.07;;;;;;;;;;5098249;28;20314;-62
2021/03/03 07:17:32;;;;;;;18.77;14.40;;;;;;;;;;5109052;28;20308;-63
2021/03/03 07:20:00;;;;;;;24.60;16.08;;;;;;;;;;5103427;28;20210;-62
2021/03/03 07:22:31;;;;;;;20.25;13.57;;;;;;;;;;5098840;28;20207;-66
2021/03/03 07:25:02;;;;;;;22.33;14.10;;;;;;;;;;5100675;28;20235;-62
2021/03/03 07:27:29;;;;;;;19.90;13.90;;;;;;;;;;5100618;28;20204;-64
2021/03/03 07:29:58;;;;;;;17.88;11.85;;;;;;;;;;5101298;28;20204;-64
2021/03/03 07:32:25;;;;;;;19.58;13.18;;;;;;;;;;5103351;28;20200;-64
2021/03/03 07:34:53;;;;;;;18.02;12.73;;;;;;;;;;5103175;28;20220;-63
2021/03/03 07:37:20;;;;;;;19.80;13.50;;;;;;;;;;5101510;28;20200;-63
2021/03/03 07:39:55;;;;;;;19.63;12.00;;;;;;;;;;5102388;28;20258;-63
2021/03/03 07:42:24;;;;;;;17.13;12.20;;;;;;;;;;5097689;28;20231;-62
2021/03/03 07:44:51;;;;;;;22.15;14.60;;;;;;;;;;5095850;28;20247;-63
2021/03/03 07:47:19;;;;;;;30.35;14.05;;;;;;;;;;5094823;28;20216;-61
2021/03/03 07:49:48;;;;;;;19.73;12.98;;;;;;;;;;5094637;28;20204;-64
2021/03/03 07:52:15;;;;;;;15.18;12.60;;;;;;;;;;5097402;28;20224;-63
2021/03/03 07:54:42;;;;;;;19.02;13.30;;;;;;;;;;5096936;28;20224;-63
2021/03/03 07:57:10;;;;;;;22.75;13.52;;;;;;;;;;5095032;28;20250;-64
2021/03/03 07:59:38;;;;;;;18.23;13.38;;;;;;;;;;5094424;28;20234;-63
2021/03/03 08:02:05;;;;;;;18.52;14.30;;;;;;;;;;5094224;28;20215;-62
2021/03/03 08:04:35;;;;;;;19.98;13.68;;;;;;;;;;5094813;28;20228;-63
2021/03/03 08:07:15;;;;;;;19.08;13.20;;;;;;;;;;5094540;28;20315;-63
2021/03/03 08:10:02;;;;;;;22.77;13.10;;;;;;;;;;5099712;28;20204;-64
2021/03/03 08:12:28;;;;;;;18.13;12.93;;;;;;;;;;5107810;28;20235;-63
2021/03/03 08:14:55;;;;;;;17.75;12.07;;;;;;;;;;5095257;28;20251;-63
2021/03/03 08:17:26;;;;;;;18.95;12.98;;;;;;;;;;5094580;28;20567;-64
2021/03/03 08:20:00;;;;;;;17.13;12.80;;;;;;;;;;5098990;28;20192;-63
2021/03/03 08:22:44;;;;;;;17.55;11.52;;;;;;;;;;5104593;28;20290;-64
2021/03/03 08:25:11;;;;;;;16.95;12.20;;;;;;;;;;5096243;28;20208;-63
2021/03/03 08:27:38;;;;;;;18.20;12.25;;;;;;;;;;5107580;28;20270;-63
2021/03/03 08:30:12;;;;;;;15.90;12.30;;;;;;;;;;5099465;28;20203;-64
2021/03/03 08:32:39;;;;;;;15.40;11.75;;;;;;;;;;5094997;28;20218;-62
2021/03/03 08:35:08;;;;;;;18.77;12.98;;;;;;;;;;5094346;28;20200;-63
2021/03/03 08:37:35;;;;;;;15.63;11.60;;;;;;;;;;5093623;28;20201;-63
2021/03/03 08:40:02;;;;;;;16.15;11.95;;;;;;;;;;5094030;28;20200;-63
2021/03/03 08:42:30;;;;;;;16.88;11.23;;;;;;;;;;5093844;28;20204;-62
2021/03/03 08:44:58;;;;;;;15.77;11.70;;;;;;;;;;5093906;28;20231;-63
2021/03/03 08:47:40;;;;;;;17.23;12.15;;;;;;;;;;5094109;28;20216;-61
2021/03/03 08:50:33;;;;;;;16.65;12.38;;;;;;;;;;5093289;28;20196;-63
2021/03/03 08:53:23;;;;;;;16.90;10.88;;;;;;;;;;5058807;28;20216;-62
2021/03/03 08:55:50;;;;;;;16.80;11.65;;;;;;;;;;5097773;28;20188;-63
2021/03/03 08:58:31;;;;;;;16.30;10.75;;;;;;;;;;5097521;28;20204;-63
2021/03/03 09:00:58;;;;;;;16.00;11.05;;;;;;;;;;5084979;28;20200;-62
2021/03/03 09:03:25;;;;;;;15.40;10.55;;;;;;;;;;5097653;28;20636;-63
2021/03/03 09:05:52;;;;;;;14.33;11.37;;;;;;;;;;5097138;28;20215;-62
2021/03/03 09:08:19;;;;;;;14.30;11.60;;;;;;;;;;5097819;28;20430;-62
2021/03/03 09:10:47;;;;;;;17.77;10.52;;;;;;;;;;5097427;28;20453;-61
2021/03/03 09:13:21;;;;;;;13.57;11.13;;;;;;;;;;5097133;28;20735;-63
2021/03/03 09:16:02;;;;;;;12.10;9.70;;;;;;;;;;5097436;28;20788;-62
2021/03/03 09:18:29;;;;;;;14.32;11.80;;;;;;;;;;5097277;28;20431;-61
2021/03/03 09:21:04;;;;;;;16.40;10.47;;;;;;;;;;5096993;28;20200;-62
2021/03/03 09:23:31;;;;;;;13.67;10.30;;;;;;;;;;5096846;28;21038;-63
2021/03/03 09:25:59;;;;;;;13.63;10.10;;;;;;;;;;5096398;28;20999;-63
2021/03/03 09:28:40;;;;;;;12.20;10.50;;;;;;;;;;5103122;28;20537;-63
2021/03/03 09:31:07;;;;;;;14.33;11.23;;;;;;;;;;5096204;28;20442;-62
2021/03/03 09:33:34;;;;;;;13.73;10.70;;;;;;;;;;5096715;28;20489;-63
2021/03/03 09:36:01;;;;;;;18.73;12.27;;;;;;;;;;5096132;28;20813;-63
2021/03/03 09:38:29;;;;;;;15.20;12.57;;;;;;;;;;5099611;28;20438;-62
2021/03/03 09:40:56;;;;;;;15.13;10.67;;;;;;;;;;5099098;28;20446;-63
2021/03/03 09:43:23;;;;;;;16.60;11.80;;;;;;;;;;5097830;28;20808;-62
2021/03/03 09:45:55;;;;;;;14.17;10.10;;;;;;;;;;5099403;28;20472;-62
2021/03/03 09:48:26;;;;;;;14.13;11.07;;;;;;;;;;5099304;28;20828;-62
2021/03/03 09:50:53;;;;;;;14.30;10.83;;;;;;;;;;5101126;28;20572;-62
2021/03/03 09:53:20;;;;;;;14.80;10.10;;;;;;;;;;5098502;28;20461;-63
2021/03/03 09:55:47;;;;;;;15.33;10.20;;;;;;;;;;5098286;28;20477;-63
2021/03/03 09:58:14;;;;;;;19.30;10.50;;;;;;;;;;5097145;28;20438;-63
2021/03/03 10:00:42;;;;;;;13.97;10.60;;;;;;;;;;5099130;28;20438;-63
2021/03/03 10:03:11;;;;;;;15.60;9.80;;;;;;;;;;5095601;28;20811;-63
2021/03/03 10:05:38;;;;;;;20.10;10.47;;;;;;;;;;5096338;28;20453;-63
2021/03/03 10:08:06;;;;;;;16.33;10.13;;;;;;;;;;5097111;28;20467;-61
2021/03/03 10:10:35;;;;;;;17.70;10.67;;;;;;;;;;5098173;28;20443;-62
2021/03/03 10:13:02;;;;;;;14.70;9.53;;;;;;;;;;5102201;28;20470;-62
2021/03/03 10:15:31;;;;;;;17.37;11.13;;;;;;;;;;5098212;28;20941;-64
2021/03/03 10:17:58;;;;;;;16.60;11.00;;;;;;;;;;5096531;28;20534;-63
2021/03/03 10:20:32;;;;;;;17.20;10.23;;;;;;;;;;5100215;28;20455;-63
2021/03/03 10:23:00;;;;;;;15.40;10.60;;;;;;;;;;5106588;28;20485;-63
2021/03/03 10:25:31;;;;;;;22.50;10.60;;;;;;;;;;5102322;28;20503;-64
2021/03/03 10:28:05;;;;;;;15.13;10.23;;;;;;;;;;5098447;28;20489;-63
2021/03/03 10:30:32;;;;;;;16.80;11.33;;;;;;;;;;5096632;28;20438;-63
2021/03/03 10:33:00;;;;;;;11.17;9.77;;;;;;;;;;5096274;28;20519;-63
2021/03/03 10:35:29;;;;;;;14.60;10.67;;;;;;;;;;5098519;28;20444;-63
2021/03/03 10:37:56;;;;;;;14.80;10.40;;;;;;;;;;5096151;28;20477;-64
2021/03/03 10:40:23;;;;;;;15.17;10.23;;;;;;;;;;5096117;28;20451;-63
2021/03/03 10:42:50;;;;;;;13.60;10.87;;;;;;;;;;5095413;28;20446;-63
2021/03/03 10:45:17;;;;;;;13.87;10.67;;;;;;;;;;5095068;28;20806;-63
2021/03/03 10:47:45;;;;;;;18.60;11.47;;;;;;;;;;5094737;28;20478;-62
2021/03/03 10:50:13;;;;;;;15.90;10.60;;;;;;;;;;5094869;28;20448;-63
2021/03/03 10:52:53;;;;;;;15.07;10.50;;;;;;;;;;5094503;28;20927;-62
2021/03/03 10:55:20;;;;;;;14.40;10.90;;;;;;;;;;5095154;28;20433;-63
2021/03/03 10:58:07;;;;;;;15.40;9.70;;;;;;;;;;5094797;28;20443;-63
2021/03/03 11:00:53;;;;;;;12.93;10.10;;;;;;;;;;5112011;28;20464;-63
2021/03/03 11:03:19;;;;;;;15.17;10.60;;;;;;;;;;5111460;28;20488;-63
2021/03/03 11:05:51;;;;;;;22.50;11.20;;;;;;;;;;5110625;28;20450;-63
2021/03/03 11:08:18;;;;;;;22.20;12.47;;;;;;;;;;5105359;28;20494;-63
2021/03/03 11:10:44;;;;;;;17.73;11.00;;;;;;;;;;5096651;28;20443;-62
2021/03/03 11:13:11;;;;;;;14.73;9.50;;;;;;;;;;5097194;28;20478;-63
2021/03/03 11:15:40;;;;;;;14.10;10.27;;;;;;;;;;5095443;28;20442;-63
2021/03/03 11:18:07;;;;;;;14.80;10.20;;;;;;;;;;5095133;28;20939;-64
2021/03/03 11:20:33;;;;;;;15.90;10.70;;;;;;;;;;5095677;28;20549;-63
2021/03/03 11:23:01;;;;;;;17.23;11.90;;;;;;;;;;5095614;28;20474;-63
2021/03/03 11:25:28;;;;;;;16.00;10.60;;;;;;;;;;5095703;28;20493;-62
2021/03/03 11:27:55;;;;;;;16.80;11.73;;;;;;;;;;5095450;28;20527;-63
2021/03/03 11:30:22;;;;;;;15.77;11.10;;;;;;;;;;5096804;28;20493;-62
2021/03/03 11:32:50;;;;;;;17.90;10.90;;;;;;;;;;5095932;28;20464;-62
2021/03/03 11:35:17;;;;;;;15.03;11.97;;;;;;;;;;5094537;28;20445;-64
2021/03/03 11:37:44;;;;;;;16.00;10.13;;;;;;;;;;5094914;28;20435;-63
2021/03/03 11:40:13;;;;;;;17.07;11.97;;;;;;;;;;5094922;28;20447;-63
2021/03/03 11:42:39;;;;;;;16.47;11.80;;;;;;;;;;5095675;28;20855;-63
2021/03/03 11:45:07;;;;;;;20.97;10.10;;;;;;;;;;5095441;28;20450;-62
2021/03/03 11:47:34;;;;;;;19.93;11.70;;;;;;;;;;5094584;28;21001;-62
2021/03/03 11:50:00;;;;;;;22.50;11.43;;;;;;;;;;5095395;28;20442;-64
2021/03/03 11:52:27;;;;;;;15.63;10.97;;;;;;;;;;5095859;28;20457;-63
2021/03/03 11:54:54;;;;;;;21.20;12.00;;;;;;;;;;5095798;28;20493;-64
2021/03/03 11:57:22;;;;;;;16.10;10.30;;;;;;;;;;5103089;28;20450;-64
2021/03/03 11:59:50;;;;;;;18.30;11.80;;;;;;;;;;5097000;28;20925;-61
2021/03/03 12:02:17;;;;;;;17.63;11.60;;;;;;;;;;5095051;28;20445;-63
2021/03/03 12:04:43;;;;;;;19.87;11.13;;;;;;;;;;5094063;28;20466;-63
2021/03/03 12:07:10;;;;;;;20.47;11.67;;;;;;;;;;5093540;28;20485;-62
2021/03/03 12:09:37;;;;;;;17.63;12.13;;;;;;;;;;5094099;28;20438;-61
2021/03/03 12:12:04;;;;;;;23.00;12.13;;;;;;;;;;5093829;28;20446;-63
2021/03/03 12:14:32;;;;;;;21.73;13.27;;;;;;;;;;5094457;28;20470;-63
2021/03/03 12:16:59;;;;;;;20.40;12.17;;;;;;;;;;5094410;28;20452;-64
2021/03/03 12:19:25;;;;;;;20.30;12.27;;;;;;;;;;5094490;28;20442;-63
2021/03/03 12:21:52;;;;;;;16.60;10.83;;;;;;;;;;5094922;28;20446;-63
2021/03/03 12:24:19;;;;;;;17.70;11.50;;;;;;;;;;5094350;28;20991;-63
2021/03/03 12:26:46;;;;;;;15.93;11.67;;;;;;;;;;5096013;28;20470;-63
2021/03/03 12:29:12;;;;;;;16.87;12.03;;;;;;;;;;5099108;28;20499;-63
2021/03/03 12:31:40;;;;;;;23.73;13.13;;;;;;;;;;5099402;28;20446;-63
2021/03/03 12:34:07;;;;;;;16.67;12.10;;;;;;;;;;5098524;28;20514;-62
2021/03/03 12:36:34;;;;;;;20.10;13.57;;;;;;;;;;5098540;28;20435;-62
2021/03/03 12:39:00;;;;;;;18.10;12.70;;;;;;;;;;5098577;28;20450;-62
2021/03/03 12:41:27;;;;;;;18.30;12.90;;;;;;;;;;5097456;28;20449;-64
2021/03/03 12:43:54;;;;;;;19.40;12.97;;;;;;;;;;5096816;28;20473;-63
2021/03/03 12:46:20;;;;;;;17.77;12.60;;;;;;;;;;5097109;28;20439;-63
2021/03/03 12:48:48;;;;;;;19.60;12.50;;;;;;;;;;5097015;28;20450;-64
2021/03/03 12:51:15;;;;;;;23.10;13.07;;;;;;;;;;5096849;28;20475;-62
2021/03/03 12:53:42;;;;;;;17.77;13.27;;;;;;;;;;5097044;28;20484;-63
2021/03/03 12:56:09;;;;;;;23.17;13.87;;;;;;;;;;5097106;28;21011;-63
2021/03/03 12:58:36;;;;;;;20.63;13.60;;;;;;;;;;5097256;28;20453;-64
2021/03/03 13:01:02;;;;;;;21.47;14.00;;;;;;;;;;5097176;28;20859;-63
2021/03/03 13:03:29;;;;;;;21.33;13.43;;;;;;;;;;5097295;28;20462;-63
2021/03/03 13:05:57;;;;;;;19.97;12.50;;;;;;;;;;5096679;28;20458;-63
2021/03/03 13:08:24;;;;;;;19.43;12.07;;;;;;;;;;5097523;28;20488;-63
2021/03/03 13:10:50;;;;;;;18.90;13.30;;;;;;;;;;5096980;28;20552;-62
2021/03/03 13:13:17;;;;;;;18.67;13.27;;;;;;;;;;5096446;28;20458;-63
2021/03/03 13:15:44;;;;;;;21.80;13.03;;;;;;;;;;5096735;28;20453;-62
2021/03/03 13:18:11;;;;;;;26.30;13.93;;;;;;;;;;5096463;28;20443;-62
2021/03/03 13:20:37;;;;;;;18.73;13.70;;;;;;;;;;5096675;28;20438;-62
2021/03/03 13:23:05;;;;;;;19.23;12.70;;;;;;;;;;5101245;28;20495;-63
2021/03/03 13:25:32;;;;;;;18.80;13.57;;;;;;;;;;5109375;28;20484;-62
2021/03/03 13:27:59;;;;;;;22.40;12.93;;;;;;;;;;5100249;28;20523;-63
2021/03/03 13:30:25;;;;;;;21.63;13.90;;;;;;;;;;5099250;28;20450;-63
2021/03/03 13:32:52;;;;;;;21.40;13.37;;;;;;;;;;5097519;28;20523;-63
2021/03/03 13:35:19;;;;;;;30.20;13.20;;;;;;;;;;5096961;28;20449;-64
2021/03/03 13:37:46;;;;;;;25.53;13.40;;;;;;;;;;5099003;28;20430;-63
2021/03/03 13:40:14;;;;;;;21.63;13.10;;;;;;;;;;5096060;28;20442;-61
2021/03/03 13:42:40;;;;;;;23.53;13.67;;;;;;;;;;5096173;28;20442;-63
2021/03/03 13:45:08;;;;;;;21.50;12.90;;;;;;;;;;5096348;28;20446;-62
2021/03/03 13:47:35;;;;;;;24.23;12.53;;;;;;;;;;5102041;28;20466;-63
2021/03/03 13:50:02;;;;;;;21.27;13.67;;;;;;;;;;5114204;28;20460;-63
2021/03/03 13:52:29;;;;;;;20.90;12.20;;;;;;;;;;5103838;28;20952;-62
2021/03/03 13:54:55;;;;;;;20.37;13.37;;;;;;;;;;5108106;28;20473;-63
2021/03/03 13:57:23;;;;;;;18.00;12.40;;;;;;;;;;5104456;28;20508;-62
2021/03/03 13:59:50;;;;;;;17.63;13.00;;;;;;;;;;5099960;28;20491;-63
2021/03/03 14:02:16;;;;;;;26.10;13.10;;;;;;;;;;5099165;28;20459;-63
2021/03/03 14:04:43;;;;;;;19.47;13.10;;;;;;;;;;5097399;28;20535;-63
2021/03/03 14:07:10;;;;;;;25.50;14.20;;;;;;;;;;5097716;28;20478;-63
2021/03/03 14:09:37;;;;;;;20.30;12.90;;;;;;;;;;5097078;28;20450;-64
2021/03/03 14:12:04;;;;;;;21.37;12.83;;;;;;;;;;5097388;28;20477;-63
2021/03/03 14:14:31;;;;;;;17.50;12.83;;;;;;;;;;5097897;28;20462;-63
2021/03/03 14:16:59;;;;;;;19.70;13.47;;;;;;;;;;5096326;28;20450;-64
2021/03/03 14:19:26;;;;;;;18.50;11.67;;;;;;;;;;5095799;28;20442;-62
2021/03/03 14:21:52;;;;;;;18.10;13.40;;;;;;;;;;5095696;28;20446;-63
2021/03/03 14:24:19;;;;;;;25.40;13.13;;;;;;;;;;5096781;28;20462;-63